Time;durP1;ratioP1;P1;durP2;ratioP2;P2;SDS_P1;SDS_P2;PMS_P1;PMS_P2;Temp;Humidity;BMP_temperature;BMP_pressure;BME280_temperature;BME280_humidity;BME280_pressure;Samples;Min_cycle;Max_cycle;Signal;HPM_P1;HPM_P2
2021/12/23 00:02:52;;;;;;;;;;;;;;;-14.18;70.93;96184.38;6397043;27;20063;-70
2021/12/23 00:05:53;;;;;;;;;;;;;;;-14.16;70.21;96160.84;6396981;27;20399;-70
2021/12/23 00:08:59;;;;;;;;;;;;;;;-14.15;70.72;96152.47;6396854;27;19923;-70
2021/12/23 00:12:01;;;;;;;;;;;;;;;-14.09;70.27;96146.69;6379322;27;19923;-70
2021/12/23 00:15:03;;;;;;;;;;;;;;;-14.06;70.40;96117.25;6397950;27;19923;-69
2021/12/23 00:18:40;;;;;;;;;;;;;;;-13.92;70.55;96088.84;6397604;27;19930;-70
2021/12/23 00:24:57;;;;;;;;;;;;;;;-13.54;69.83;96091.13;6396456;27;19930;-70
2021/12/23 00:28:01;;;;;;;;;;;;;;;-13.37;69.62;96084.63;6397625;27;19923;-70
2021/12/23 00:31:02;;;;;;;;;;;;;;;-13.37;69.38;96077.03;6396835;27;19919;-70
2021/12/23 00:34:03;;;;;;;;;;;;;;;-13.27;69.30;96063.69;6396539;27;19953;-70
2021/12/23 00:37:09;;;;;;;;;;;;;;;-13.14;69.56;96057.94;6399092;27;19927;-70
2021/12/23 00:40:11;;;;;;;;;;;;;;;-13.06;68.99;96067.31;6402332;27;19923;-69
2021/12/23 00:43:13;;;;;;;;;;;;;;;-13.09;68.94;96075.72;6402359;27;19938;-69
2021/12/23 00:46:14;;;;;;;;;;;;;;;-13.19;69.00;96125.38;6402209;27;19923;-69
2021/12/23 00:49:19;;;;;;;;;;;;;;;-13.28;68.97;96165.75;6402879;27;19923;-69
2021/12/23 00:52:31;;;;;;;;;;;;;;;-13.46;67.70;96140.16;6402470;27;19942;-70
2021/12/23 00:55:32;;;;;;;;;;;;;;;-13.91;67.28;96141.09;6401927;27;19923;-70
2021/12/23 00:58:38;;;;;;;;;;;;;;;-14.43;67.62;96119.88;6402246;27;19927;-70
2021/12/23 01:01:42;;;;;;;;;;;;;;;-14.66;68.27;96132.97;6401362;27;20383;-70
2021/12/23 01:04:45;;;;;;;;;;;;;;;-14.78;68.61;96127.66;6402261;27;20350;-70
2021/12/23 01:07:51;;;;;;;;;;;;;;;-14.82;69.29;96141.88;6402791;27;19922;-69
2021/12/23 01:10:56;;;;;;;;;;;;;;;-14.74;69.28;96144.59;6401633;27;19927;-69
2021/12/23 01:14:03;;;;;;;;;;;;;;;-14.70;69.09;96156.44;6401082;27;19923;-70
2021/12/23 01:20:31;;;;;;;;;;;;;;;-14.72;68.50;96168.16;6401239;27;20438;-69
2021/12/23 01:23:40;;;;;;;;;;;;;;;-14.76;69.12;96174.00;6401604;27;19923;-70
2021/12/23 01:26:44;;;;;;;;;;;;;;;-14.88;68.92;96196.47;6383020;27;20300;-69
2021/12/23 01:29:48;;;;;;;;;;;;;;;-15.02;68.96;96204.56;6401643;27;20380;-69
2021/12/23 01:32:50;;;;;;;;;;;;;;;-15.16;69.10;96190.78;6382803;27;19930;-70
2021/12/23 01:35:54;;;;;;;;;;;;;;;-15.19;69.46;96205.84;6400518;27;20218;-70
2021/12/23 01:38:57;;;;;;;;;;;;;;;-15.29;69.00;96207.28;6401483;27;20291;-70
2021/12/23 01:42:02;;;;;;;;;;;;;;;-15.24;68.64;96199.84;6401678;27;19923;-69
2021/12/23 01:45:08;;;;;;;;;;;;;;;-15.18;68.61;96215.09;6400845;27;20017;-70
2021/12/23 01:48:09;;;;;;;;;;;;;;;-15.27;68.49;96207.34;6399354;27;20002;-70
2021/12/23 01:51:11;;;;;;;;;;;;;;;-15.52;68.86;96201.69;6401015;27;19930;-69
2021/12/23 01:54:14;;;;;;;;;;;;;;;-15.55;69.32;96190.66;6401123;27;19923;-69
2021/12/23 01:57:16;;;;;;;;;;;;;;;-15.50;69.47;96189.97;6401012;27;19930;-70
2021/12/23 02:00:18;;;;;;;;;;;;;;;-15.34;69.75;96185.28;6400943;27;19922;-69
2021/12/23 02:03:21;;;;;;;;;;;;;;;-15.26;69.94;96188.84;6399938;27;19930;-70
2021/12/23 02:06:25;;;;;;;;;;;;;;;-15.08;69.66;96212.00;6400909;27;20089;-69
2021/12/23 02:09:26;;;;;;;;;;;;;;;-14.85;69.83;96214.19;6399613;27;19964;-70
2021/12/23 02:12:32;;;;;;;;;;;;;;;-14.62;69.51;96200.41;6400560;27;19923;-69
2021/12/23 02:15:35;;;;;;;;;;;;;;;-14.47;69.72;96200.66;6400531;27;19923;-70
2021/12/23 02:18:39;;;;;;;;;;;;;;;-14.32;69.43;96194.22;6400869;27;19930;-69
2021/12/23 02:21:44;;;;;;;;;;;;;;;-14.21;69.56;96185.19;6400345;27;19923;-69
2021/12/23 02:24:45;;;;;;;;;;;;;;;-14.10;69.29;96180.34;6400317;27;19922;-70
2021/12/23 02:27:46;;;;;;;;;;;;;;;-13.98;69.04;96175.53;6399439;27;19922;-70
2021/12/23 02:30:51;;;;;;;;;;;;;;;-13.86;69.58;96179.97;6400064;27;19932;-70
2021/12/23 02:33:52;;;;;;;;;;;;;;;-13.75;69.28;96183.53;6398371;27;20000;-70
2021/12/23 02:36:55;;;;;;;;;;;;;;;-13.59;69.21;96182.97;6399003;27;20432;-70
2021/12/23 02:39:59;;;;;;;;;;;;;;;-13.50;68.98;96189.00;6399685;27;19996;-70
2021/12/23 02:43:10;;;;;;;;;;;;;;;-13.29;68.36;96189.38;6399387;27;19930;-70
2021/12/23 02:46:11;;;;;;;;;;;;;;;-13.09;67.50;96177.00;6398780;27;20010;-70
2021/12/23 02:49:15;;;;;;;;;;;;;;;-12.93;66.50;96188.22;6399649;27;19923;-70
2021/12/23 02:52:18;;;;;;;;;;;;;;;-13.17;65.62;96193.75;6399509;27;19923;-69
2021/12/23 02:55:22;;;;;;;;;;;;;;;-13.44;66.62;96195.03;6398898;27;19926;-70
2021/12/23 02:58:23;;;;;;;;;;;;;;;-13.57;67.21;96198.19;6398669;27;19945;-70
2021/12/23 03:01:27;;;;;;;;;;;;;;;-13.58;67.32;96197.34;6399293;27;19923;-71
2021/12/23 03:04:28;;;;;;;;;;;;;;;-13.67;67.64;96197.19;6398208;27;19923;-70
2021/12/23 03:07:31;;;;;;;;;;;;;;;-13.71;67.39;96195.41;6399172;27;20487;-70
2021/12/23 03:10:35;;;;;;;;;;;;;;;-13.70;67.82;96196.25;6398088;27;20044;-70
2021/12/23 03:13:37;;;;;;;;;;;;;;;-13.49;67.84;96198.31;6398315;27;20006;-70
2021/12/23 03:16:41;;;;;;;;;;;;;;;-13.47;68.07;96189.06;6399117;27;19923;-70
2021/12/23 03:19:44;;;;;;;;;;;;;;;-13.68;68.28;96187.88;6398978;27;20010;-70
2021/12/23 03:22:47;;;;;;;;;;;;;;;-13.55;68.94;96170.38;6397300;27;20082;-70
2021/12/23 03:25:48;;;;;;;;;;;;;;;-13.56;69.14;96174.56;6398917;27;19937;-70
2021/12/23 03:28:55;;;;;;;;;;;;;;;-13.43;69.06;96181.56;6398997;27;19922;-70
2021/12/23 03:31:58;;;;;;;;;;;;;;;-13.28;68.06;96169.97;6398590;27;20017;-71
2021/12/23 03:34:59;;;;;;;;;;;;;;;-13.47;68.72;96169.69;6397286;27;19930;-70
2021/12/23 03:38:00;;;;;;;;;;;;;;;-13.58;69.03;96166.97;6397114;27;19930;-69
2021/12/23 03:41:01;;;;;;;;;;;;;;;-13.51;69.53;96142.63;6397225;27;20303;-71
2021/12/23 03:44:06;;;;;;;;;;;;;;;-13.30;69.37;96142.13;6397386;27;19923;-71
2021/12/23 03:47:10;;;;;;;;;;;;;;;-13.14;69.69;96159.19;6397432;27;20344;-69
2021/12/23 03:50:13;;;;;;;;;;;;;;;-12.89;69.39;96159.56;6398422;27;19923;-70
2021/12/23 03:53:18;;;;;;;;;;;;;;;-12.90;69.45;96153.66;6379634;27;19923;-70
2021/12/23 03:56:22;;;;;;;;;;;;;;;-12.63;67.61;96161.59;6398270;27;19923;-70
2021/12/23 03:59:25;;;;;;;;;;;;;;;-12.93;67.85;96157.84;6397771;27;19976;-70
2021/12/23 04:02:27;;;;;;;;;;;;;;;-13.00;68.28;96163.63;6396774;27;19923;-70
2021/12/23 04:05:30;;;;;;;;;;;;;;;-13.06;67.03;96161.84;6398071;27;19923;-70
2021/12/23 04:08:34;;;;;;;;;;;;;;;-12.90;67.53;96152.81;6397977;27;20017;-70
2021/12/23 04:11:36;;;;;;;;;;;;;;;-12.99;66.81;96157.72;6396834;27;20304;-70
2021/12/23 04:14:39;;;;;;;;;;;;;;;-12.90;66.63;96152.81;6397171;27;19923;-70
2021/12/23 04:17:41;;;;;;;;;;;;;;;-13.28;65.93;96165.75;6396819;27;19923;-70
2021/12/23 04:20:53;;;;;;;;;;;;;;;-13.08;66.34;96165.19;6397669;27;19923;-70
2021/12/23 04:23:54;;;;;;;;;;;;;;;-13.21;66.79;96157.41;6396520;27;19923;-71
2021/12/23 04:26:59;;;;;;;;;;;;;;;-13.26;66.79;96156.50;6397373;27;19927;-72
2021/12/23 04:30:04;;;;;;;;;;;;;;;-13.13;66.91;96155.84;6397513;27;19926;-70
2021/12/23 04:33:05;;;;;;;;;;;;;;;-13.20;66.57;96154.03;6396155;27;20376;-70
2021/12/23 04:36:07;;;;;;;;;;;;;;;-13.33;66.93;96157.25;6397277;27;19931;-70
2021/12/23 04:39:14;;;;;;;;;;;;;;;-13.25;67.22;96155.66;6397342;27;20376;-70
2021/12/23 04:42:17;;;;;;;;;;;;;;;-13.16;67.11;96158.34;6397062;27;19927;-70
2021/12/23 04:45:20;;;;;;;;;;;;;;;-13.05;67.74;96162.69;6397329;27;19919;-70
2021/12/23 04:48:24;;;;;;;;;;;;;;;-12.88;66.79;96156.19;6397253;27;20400;-70
2021/12/23 04:51:27;;;;;;;;;;;;;;;-12.95;67.00;96169.59;6396270;27;19926;-70
2021/12/23 04:54:28;;;;;;;;;;;;;;;-12.91;66.69;96172.22;6396200;27;19923;-70
2021/12/23 04:57:32;;;;;;;;;;;;;;;-12.82;66.27;96153.78;6397227;27;20400;-70
2021/12/23 05:00:33;;;;;;;;;;;;;;;-12.83;66.11;96136.84;6395893;27;19930;-70
2021/12/23 05:03:36;;;;;;;;;;;;;;;-12.77;65.42;96154.66;6396954;27;20290;-70
2021/12/23 05:06:37;;;;;;;;;;;;;;;-13.01;65.70;96149.28;6396271;27;19934;-72
2021/12/23 05:09:41;;;;;;;;;;;;;;;-12.97;65.97;96151.84;6396859;27;19922;-70
2021/12/23 05:12:46;;;;;;;;;;;;;;;-12.80;66.04;96147.03;6396953;27;19923;-70
2021/12/23 05:15:50;;;;;;;;;;;;;;;-12.70;65.51;96140.41;6396290;27;19931;-70
2021/12/23 05:18:51;;;;;;;;;;;;;;;-12.70;65.55;96146.31;6396126;27;19945;-70
2021/12/23 05:21:52;;;;;;;;;;;;;;;-12.84;65.71;96145.28;6396101;27;19962;-70
2021/12/23 05:24:55;;;;;;;;;;;;;;;-12.64;66.32;96144.72;6401035;27;20627;-69
2021/12/23 05:27:58;;;;;;;;;;;;;;;-12.60;66.34;96142.22;6400709;27;19923;-70
2021/12/23 05:30:59;;;;;;;;;;;;;;;-12.29;66.27;96145.97;6401795;27;20022;-70
2021/12/23 05:34:00;;;;;;;;;;;;;;;-12.33;65.60;96156.94;6400835;27;20304;-70
2021/12/23 05:37:04;;;;;;;;;;;;;;;-12.13;66.26;96148.72;6401621;27;20019;-71
2021/12/23 05:40:09;;;;;;;;;;;;;;;-12.04;65.27;96157.25;6401237;27;19923;-70
2021/12/23 05:43:10;;;;;;;;;;;;;;;-12.06;65.75;96153.00;6401318;27;19975;-70
2021/12/23 05:46:13;;;;;;;;;;;;;;;-11.88;65.04;96159.97;6401199;27;20029;-69
2021/12/23 05:49:16;;;;;;;;;;;;;;;-11.93;65.22;96159.91;6401090;27;20308;-70
2021/12/23 05:52:22;;;;;;;;;;;;;;;-11.86;65.41;96149.03;6401033;27;19927;-71
2021/12/23 05:55:26;;;;;;;;;;;;;;;-11.73;65.44;96149.94;6400186;27;19923;-70
2021/12/23 05:58:27;;;;;;;;;;;;;;;-11.57;65.24;96150.97;6400659;27;19923;-70
2021/12/23 06:01:31;;;;;;;;;;;;;;;-11.37;64.89;96156.22;6400996;27;19923;-70
2021/12/23 06:04:36;;;;;;;;;;;;;;;-11.36;64.92;96148.59;6399807;27;19967;-70
2021/12/23 06:07:43;;;;;;;;;;;;;;;-11.33;65.17;96146.06;6400923;27;19923;-70
2021/12/23 06:10:44;;;;;;;;;;;;;;;-10.94;64.44;96144.69;6399467;27;19923;-70
2021/12/23 06:13:50;;;;;;;;;;;;;;;-11.05;63.69;96146.28;6400588;27;19931;-70
2021/12/23 06:16:53;;;;;;;;;;;;;;;-11.13;64.17;96141.16;6400604;27;19923;-70
2021/12/23 06:19:56;;;;;;;;;;;;;;;-10.93;63.69;96146.38;6399344;27;20429;-69
2021/12/23 06:22:57;;;;;;;;;;;;;;;-10.92;63.55;96157.41;6399475;27;20299;-69
2021/12/23 06:25:59;;;;;;;;;;;;;;;-10.93;63.91;96161.63;6400063;27;19927;-70
2021/12/23 06:29:03;;;;;;;;;;;;;;;-10.82;63.89;96148.13;6400334;27;19953;-70
2021/12/23 06:32:04;;;;;;;;;;;;;;;-10.72;64.16;96144.81;6380910;27;19927;-70
2021/12/23 06:35:05;;;;;;;;;;;;;;;-10.32;63.70;96150.13;6398214;27;19969;-70
2021/12/23 06:38:10;;;;;;;;;;;;;;;-10.24;63.26;96145.88;6400084;27;19923;-70
2021/12/23 06:41:12;;;;;;;;;;;;;;;-10.20;63.03;96145.03;6398829;27;19923;-69
2021/12/23 06:44:17;;;;;;;;;;;;;;;-9.99;62.35;96140.03;6399982;27;20378;-70
2021/12/23 06:47:21;;;;;;;;;;;;;;;-9.77;62.14;96133.28;6398994;27;19926;-69
2021/12/23 06:50:23;;;;;;;;;;;;;;;-9.79;61.05;96129.06;6399630;27;20067;-70
2021/12/23 06:53:24;;;;;;;;;;;;;;;-9.82;61.65;96131.59;6398725;27;20390;-69
2021/12/23 06:56:25;;;;;;;;;;;;;;;-9.83;62.47;96129.88;6398685;27;19923;-70
2021/12/23 06:59:29;;;;;;;;;;;;;;;-9.73;62.11;96137.56;6399449;27;20009;-69
2021/12/23 07:02:35;;;;;;;;;;;;;;;-9.85;62.71;96131.56;6399454;27;20388;-69
2021/12/23 07:05:42;;;;;;;;;;;;;;;-9.64;62.15;96126.53;6399292;27;20013;-70
2021/12/23 07:08:45;;;;;;;;;;;;;;;-9.67;61.78;96124.00;6399172;27;19922;-69
2021/12/23 07:11:49;;;;;;;;;;;;;;;-9.60;62.27;96128.22;6398550;27;19923;-69
2021/12/23 07:14:53;;;;;;;;;;;;;;;-9.42;62.77;96142.72;6399005;27;19923;-69
2021/12/23 07:17:59;;;;;;;;;;;;;;;-9.10;60.88;96135.06;6399011;27;20407;-70
2021/12/23 07:21:02;;;;;;;;;;;;;;;-9.34;61.63;96127.41;6398924;27;19923;-71
2021/12/23 07:24:03;;;;;;;;;;;;;;;-9.19;61.51;96124.88;6397800;27;19930;-69
2021/12/23 07:27:07;;;;;;;;;;;;;;;-9.11;61.89;96130.81;6398773;27;19923;-69
2021/12/23 07:30:12;;;;;;;;;;;;;;;-9.11;61.93;96128.28;6397817;27;19923;-70
2021/12/23 07:33:14;;;;;;;;;;;;;;;-8.96;62.31;96137.59;6397558;27;20122;-69
2021/12/23 07:36:17;;;;;;;;;;;;;;;-8.89;61.76;96138.44;6397975;27;19964;-70
2021/12/23 07:39:19;;;;;;;;;;;;;;;-8.83;61.81;96136.75;6398412;27;19923;-69
2021/12/23 07:42:22;;;;;;;;;;;;;;;-8.74;61.29;96127.41;6397937;27;19929;-70
2021/12/23 07:45:28;;;;;;;;;;;;;;;-8.78;62.10;96136.72;6397162;27;19923;-70
2021/12/23 07:48:30;;;;;;;;;;;;;;;-8.94;62.34;96125.72;6396109;27;19923;-70
2021/12/23 07:51:32;;;;;;;;;;;;;;;-8.79;62.59;96137.59;6397017;27;19930;-69
2021/12/23 07:54:36;;;;;;;;;;;;;;;-8.87;62.29;96132.50;6397897;27;19923;-70
2021/12/23 07:57:37;;;;;;;;;;;;;;;-8.85;62.47;96127.41;6397002;27;19927;-70
2021/12/23 08:00:41;;;;;;;;;;;;;;;-8.70;62.93;96129.91;6398262;27;20388;-70
2021/12/23 08:03:42;;;;;;;;;;;;;;;-8.47;62.50;96137.50;6398008;27;19923;-71
2021/12/23 08:06:44;;;;;;;;;;;;;;;-8.43;62.58;96128.19;6397076;27;20096;-69
2021/12/23 08:09:47;;;;;;;;;;;;;;;-8.01;62.58;96134.78;6396793;27;19934;-71
2021/12/23 08:12:48;;;;;;;;;;;;;;;-7.68;60.12;96136.31;6396712;27;19930;-69
2021/12/23 08:15:51;;;;;;;;;;;;;;;-7.54;60.20;96112.41;6397879;27;19923;-70
2021/12/23 08:18:54;;;;;;;;;;;;;;;-6.97;58.95;96134.97;6397678;27;20245;-71
2021/12/23 08:21:58;;;;;;;;;;;;;;;-6.56;58.14;96129.50;6396391;27;19934;-72
2021/12/23 08:25:01;;;;;;;;;;;;;;;-6.25;57.13;96126.63;6396152;27;19923;-70
2021/12/23 08:28:06;;;;;;;;;;;;;;;-5.32;56.32;96127.06;6396034;27;20410;-70
2021/12/23 08:31:07;;;;;;;;;;;;;;;-4.55;53.36;96124.97;6397244;27;19923;-70
2021/12/23 08:34:10;;;;;;;;;;;;;;;-3.93;50.93;96126.38;6396969;27;19923;-71
2021/12/23 08:37:16;;;;;;;;;;;;;;;-2.62;48.37;96126.88;6397285;27;19923;-72
2021/12/23 08:40:19;;;;;;;;;;;;;;;-2.95;46.68;96134.53;6396613;27;19923;-70
2021/12/23 08:43:22;;;;;;;;;;;;;;;-4.19;49.28;96125.19;6395985;27;19923;-69
2021/12/23 08:46:23;;;;;;;;;;;;;;;-5.02;51.59;96121.47;6396414;27;19923;-69
2021/12/23 08:49:29;;;;;;;;;;;;;;;-5.50;52.37;96118.78;6397167;27;20334;-69
2021/12/23 08:52:30;;;;;;;;;;;;;;;-6.08;54.18;96124.72;6396263;27;20056;-69
2021/12/23 08:55:36;;;;;;;;;;;;;;;-5.10;53.12;96117.34;6397046;27;20315;-69
2021/12/23 08:58:40;;;;;;;;;;;;;;;-3.57;51.20;96119.63;6399235;27;20307;-69
2021/12/23 09:01:43;;;;;;;;;;;;;;;-2.14;48.37;96123.91;6402279;27;19919;-69
2021/12/23 09:04:44;;;;;;;;;;;;;;;-2.31;46.24;96130.34;6401778;27;19929;-69
2021/12/23 09:07:45;;;;;;;;;;;;;;;-3.71;47.82;96125.06;6401124;27;19991;-69
2021/12/23 09:10:50;;;;;;;;;;;;;;;-2.96;47.46;96127.69;6402034;27;19927;-70
2021/12/23 09:13:53;;;;;;;;;;;;;;;-0.85;42.98;96118.41;6401103;27;19924;-71
2021/12/23 09:16:54;;;;;;;;;;;;;;;0.71;40.69;96127.59;6401171;27;19923;-69
2021/12/23 09:19:55;;;;;;;;;;;;;;;1.57;38.28;96137.16;6401045;27;19922;-69
2021/12/23 09:23:01;;;;;;;;;;;;;;;-0.50;39.89;96131.91;6401152;27;19937;-70
2021/12/23 09:26:09;;;;;;;;;;;;;;;-2.95;43.53;96140.50;6400804;27;19929;-69
2021/12/23 09:32:38;;;;;;;;;;;;;;;-4.30;47.31;96121.97;6401624;27;19923;-69
2021/12/23 09:32:52;;;;;;;;;;;;;;;-3.22;46.24;96129.13;6401566;27;19923;-70
2021/12/23 09:35:54;;;;;;;;;;;;;;;-1.95;42.34;96125.09;6399954;27;19960;-69
2021/12/23 09:38:58;;;;;;;;;;;;;;;-1.27;41.12;96133.47;6401364;27;20055;-70
2021/12/23 09:42:02;;;;;;;;;;;;;;;-0.82;39.50;96132.91;6400961;27;19923;-70
2021/12/23 09:45:06;;;;;;;;;;;;;;;-0.60;39.37;96128.75;6400810;27;19923;-69
2021/12/23 09:48:07;;;;;;;;;;;;;;;-0.57;38.88;96113.16;6400040;27;19976;-70
2021/12/23 09:51:10;;;;;;;;;;;;;;;-0.69;38.07;96122.16;6400308;27;19938;-70
2021/12/23 09:54:15;;;;;;;;;;;;;;;-1.56;39.69;96135.16;6400001;27;20068;-69
2021/12/23 09:57:16;;;;;;;;;;;;;;;-2.38;41.36;96135.69;6400986;27;19923;-69
2021/12/23 10:00:24;;;;;;;;;;;;;;;-1.96;40.71;96144.03;6400886;27;19923;-70
2021/12/23 10:03:30;;;;;;;;;;;;;;;-1.67;39.58;96144.94;6400802;27;20018;-70
2021/12/23 10:06:34;;;;;;;;;;;;;;;-2.55;40.02;96143.84;6400853;27;19923;-70
2021/12/23 10:39:44;;;;;;;;;;;;;;;-10.30;58.00;96153.50;6398932;27;19930;-70
2021/12/23 10:42:50;;;;;;;;;;;;;;;-10.32;58.85;96139.94;6399496;27;20299;-70
2021/12/23 10:45:56;;;;;;;;;;;;;;;-10.21;57.99;96148.44;6399222;27;19923;-70
2021/12/23 10:52:46;;;;;;;;;;;;;;;-10.23;58.00;96153.50;6398333;27;19923;-69
2021/12/23 10:59:23;;;;;;;;;;;;;;;-10.60;58.06;96160.13;6399786;27;19923;-71
2021/12/23 11:02:33;;;;;;;;;;;;;;;-10.88;58.37;96149.78;6380375;27;20338;-72
2021/12/23 11:05:44;;;;;;;;;;;;;;;-11.05;58.40;96151.38;6398285;27;19930;-70
2021/12/23 11:09:11;;;;;;;;;;;;;;;-11.39;58.66;96155.34;6399325;27;20376;-70
2021/12/23 11:30:05;;;;;;;;;;;;;;;-12.49;59.89;96187.97;6399078;27;20009;-70
2021/12/23 11:36:34;;;;;;;;;;;;;;;-12.60;60.51;96194.59;6397921;27;19922;-71
2021/12/23 11:46:02;;;;;;;;;;;;;;;-12.47;59.17;96193.94;6398537;27;19923;-71
2021/12/23 11:49:07;;;;;;;;;;;;;;;-12.53;58.76;96188.78;6397835;27;20353;-71
2021/12/23 11:52:09;;;;;;;;;;;;;;;-12.66;58.71;96192.81;6397076;27;20009;-71
2021/12/23 11:55:13;;;;;;;;;;;;;;;-12.81;59.02;96193.47;6398231;27;19953;-70
2021/12/23 11:58:20;;;;;;;;;;;;;;;-13.11;59.56;96194.69;6380125;27;19927;-70
2021/12/23 12:01:22;;;;;;;;;;;;;;;-13.20;59.18;96194.53;6397465;27;19923;-71
2021/12/23 12:04:37;;;;;;;;;;;;;;;-13.55;59.60;96201.59;6396834;27;19923;-71
2021/12/23 12:07:41;;;;;;;;;;;;;;;-13.73;60.35;96202.09;6396491;27;20288;-71
2021/12/23 12:10:43;;;;;;;;;;;;;;;-13.97;61.18;96216.84;6397130;27;19934;-71
2021/12/23 12:13:44;;;;;;;;;;;;;;;-14.37;61.34;96216.03;6397868;27;19930;-72
2021/12/23 12:16:48;;;;;;;;;;;;;;;-14.37;61.57;96221.09;6397412;27;19973;-70
2021/12/23 12:19:52;;;;;;;;;;;;;;;-14.50;62.73;96225.88;6396783;27;20287;-70
2021/12/23 12:22:55;;;;;;;;;;;;;;;-14.64;62.76;96241.59;6396291;27;19923;-70
2021/12/23 12:25:58;;;;;;;;;;;;;;;-14.65;63.15;96245.78;6396862;27;20299;-70
2021/12/23 12:29:05;;;;;;;;;;;;;;;-14.78;63.12;96246.31;6397406;27;19923;-71
2021/12/23 12:32:28;;;;;;;;;;;;;;;-14.80;63.67;96245.41;6396739;27;19927;-70
2021/12/23 12:35:29;;;;;;;;;;;;;;;-14.50;62.54;96251.13;6396594;27;20710;-70
2021/12/23 12:38:33;;;;;;;;;;;;;;;-14.55;62.60;96245.19;6397044;27;19930;-70
2021/12/23 12:41:35;;;;;;;;;;;;;;;-14.51;61.81;96241.84;6396523;27;20055;-70
2021/12/23 12:44:47;;;;;;;;;;;;;;;-14.66;61.22;96244.09;6397053;27;20348;-70
2021/12/23 12:47:54;;;;;;;;;;;;;;;-14.90;61.05;96254.47;6396995;27;19923;-70
2021/12/23 12:50:55;;;;;;;;;;;;;;;-15.27;61.79;96258.63;6395945;27;19919;-69
2021/12/23 12:54:04;;;;;;;;;;;;;;;-15.51;62.52;96263.94;6378037;27;20380;-70
2021/12/23 12:57:11;;;;;;;;;;;;;;;-15.59;63.13;96269.56;6396917;27;20384;-71
2021/12/23 13:00:28;;;;;;;;;;;;;;;-15.66;63.51;96264.38;6396499;27;20273;-70
2021/12/23 13:03:29;;;;;;;;;;;;;;;-15.62;63.41;96280.44;6396256;27;20273;-70
2021/12/23 13:06:37;;;;;;;;;;;;;;;-15.58;63.52;96282.22;6396156;27;19930;-70
2021/12/23 13:09:48;;;;;;;;;;;;;;;-15.64;62.25;96289.63;6396892;27;20273;-70
2021/12/23 13:12:56;;;;;;;;;;;;;;;-15.91;62.44;96287.25;6396913;27;20013;-70
2021/12/23 13:16:10;;;;;;;;;;;;;;;-16.18;63.01;96297.41;6396834;27;19930;-70
2021/12/23 13:19:17;;;;;;;;;;;;;;;-16.31;63.18;96296.19;6395710;27;19923;-71
2021/12/23 13:22:19;;;;;;;;;;;;;;;-16.17;64.08;96307.53;6395578;27;19930;-71
2021/12/23 13:25:22;;;;;;;;;;;;;;;-15.85;63.82;96298.38;6396616;27;19923;-70
2021/12/23 13:28:29;;;;;;;;;;;;;;;-15.57;62.82;96304.09;6378463;27;19923;-70
2021/12/23 13:31:31;;;;;;;;;;;;;;;-15.06;60.76;96301.19;6395758;27;20063;-70
2021/12/23 13:34:35;;;;;;;;;;;;;;;-14.70;58.95;96307.97;6395702;27;19931;-71
2021/12/23 13:37:45;;;;;;;;;;;;;;;-14.69;58.37;96289.44;6378441;27;20380;-70
2021/12/23 13:40:49;;;;;;;;;;;;;;;-15.13;59.10;96306.06;6396389;27;19927;-71
2021/12/23 13:43:55;;;;;;;;;;;;;;;-15.25;59.60;96311.69;6396313;27;20456;-70
2021/12/23 13:47:00;;;;;;;;;;;;;;;-15.40;60.22;96313.00;6400652;27;20000;-70
2021/12/23 13:50:06;;;;;;;;;;;;;;;-15.28;60.15;96311.56;6401070;27;19923;-71
2021/12/23 13:53:14;;;;;;;;;;;;;;;-14.93;58.60;96320.88;6400281;27;20396;-70
2021/12/23 13:56:17;;;;;;;;;;;;;;;-15.50;59.29;96321.13;6400055;27;19922;-70
2021/12/23 13:59:18;;;;;;;;;;;;;;;-15.50;59.82;96328.69;6399783;27;19923;-70
2021/12/23 14:02:25;;;;;;;;;;;;;;;-15.78;59.82;96331.28;6400874;27;19930;-72
2021/12/23 14:05:27;;;;;;;;;;;;;;;-15.23;58.80;96322.63;6399791;27;20710;-70
2021/12/23 14:08:30;;;;;;;;;;;;;;;-14.98;56.23;96308.97;6399357;27;19927;-71
2021/12/23 14:11:31;;;;;;;;;;;;;;;-15.02;56.18;96314.78;6399392;27;19923;-72
2021/12/23 14:14:33;;;;;;;;;;;;;;;-15.20;56.21;96322.72;6399324;27;19923;-70
2021/12/23 14:17:39;;;;;;;;;;;;;;;-15.43;56.42;96333.06;6399406;27;20392;-70
2021/12/23 14:24:03;;;;;;;;;;;;;;;-15.58;56.39;96329.28;6399800;27;19948;-71
2021/12/23 14:27:05;;;;;;;;;;;;;;;-16.16;57.19;96336.06;6399319;27;19963;-70
2021/12/23 14:30:08;;;;;;;;;;;;;;;-16.10;57.97;96333.75;6399946;27;19923;-72
2021/12/23 14:33:15;;;;;;;;;;;;;;;-15.97;57.95;96343.38;6400128;27;19923;-70
2021/12/23 14:36:24;;;;;;;;;;;;;;;-15.94;57.55;96340.94;6398957;27;19926;-70
2021/12/23 14:39:30;;;;;;;;;;;;;;;-16.00;57.85;96340.75;6399965;27;20010;-70
2021/12/23 14:42:34;;;;;;;;;;;;;;;-15.98;57.74;96341.66;6399976;27;19923;-70
2021/12/23 14:45:38;;;;;;;;;;;;;;;-16.04;57.73;96326.38;6399663;27;19923;-70
2021/12/23 14:52:15;;;;;;;;;;;;;;;-16.18;57.77;96332.69;6398387;27;19946;-70
2021/12/23 14:55:20;;;;;;;;;;;;;;;-16.15;58.15;96327.72;6398919;27;19923;-70
2021/12/23 14:58:21;;;;;;;;;;;;;;;-16.09;58.23;96326.22;6399516;27;20429;-70
2021/12/23 15:01:26;;;;;;;;;;;;;;;-16.27;58.72;96327.34;6399331;27;19919;-71
2021/12/23 15:04:27;;;;;;;;;;;;;;;-16.16;58.36;96347.03;6398282;27;19996;-71
2021/12/23 15:07:44;;;;;;;;;;;;;;;-16.21;58.87;96357.78;6398392;27;19923;-72
2021/12/23 15:10:50;;;;;;;;;;;;;;;-16.44;58.77;96357.94;6399159;27;19929;-71
2021/12/23 15:13:51;;;;;;;;;;;;;;;-16.44;59.10;96362.09;6398259;27;19922;-70
2021/12/23 15:16:59;;;;;;;;;;;;;;;-16.54;59.37;96366.84;6398964;27;19923;-68
2021/12/23 15:20:18;;;;;;;;;;;;;;;-16.21;58.67;96352.75;6398966;27;20018;-70
2021/12/23 15:23:36;;;;;;;;;;;;;;;-16.34;59.13;96352.34;6398167;27;19923;-70
2021/12/23 15:26:38;;;;;;;;;;;;;;;-15.77;58.19;96361.56;6397549;27;19923;-70
2021/12/23 15:29:44;;;;;;;;;;;;;;;-15.90;57.67;96372.13;6398771;27;19923;-70
2021/12/23 15:32:48;;;;;;;;;;;;;;;-16.07;58.68;96376.69;6397033;27;19930;-71
2021/12/23 15:35:49;;;;;;;;;;;;;;;-15.75;58.67;96376.75;6397181;27;20326;-71
2021/12/23 15:38:50;;;;;;;;;;;;;;;-15.42;56.74;96380.19;6397845;27;20299;-70
2021/12/23 15:41:55;;;;;;;;;;;;;;;-15.46;56.19;96368.28;6398326;27;20397;-71
2021/12/23 15:44:58;;;;;;;;;;;;;;;-15.83;56.85;96380.72;6398006;27;19923;-71
2021/12/23 15:48:03;;;;;;;;;;;;;;;-15.64;56.22;96382.94;6398235;27;20384;-70
2021/12/23 15:51:06;;;;;;;;;;;;;;;-15.73;55.88;96397.84;6397887;27;20018;-70
2021/12/23 15:54:10;;;;;;;;;;;;;;;-15.86;56.33;96377.28;6398178;27;19923;-70
2021/12/23 15:57:14;;;;;;;;;;;;;;;-16.01;55.65;96402.06;6398211;27;20329;-72
2021/12/23 16:00:17;;;;;;;;;;;;;;;-16.20;56.10;96389.72;6397538;27;19965;-70
2021/12/23 16:03:19;;;;;;;;;;;;;;;-16.45;57.09;96388.09;6397996;27;19923;-72
2021/12/23 16:09:48;;;;;;;;;;;;;;;-16.25;56.80;96403.81;6396747;27;19923;-70
2021/12/23 16:12:50;;;;;;;;;;;;;;;-16.20;55.53;96415.75;6397228;27;20312;-70
2021/12/23 16:15:54;;;;;;;;;;;;;;;-16.23;55.48;96409.78;6397497;27;19922;-69
2021/12/23 16:18:57;;;;;;;;;;;;;;;-16.00;54.16;96418.03;6397870;27;19923;-70
2021/12/23 16:22:01;;;;;;;;;;;;;;;-16.16;54.32;96432.69;6397699;27;20006;-69
2021/12/23 16:25:05;;;;;;;;;;;;;;;-16.44;54.60;96438.53;6397398;27;19931;-70
2021/12/23 16:28:07;;;;;;;;;;;;;;;-16.35;53.89;96411.09;6396221;27;20022;-70
2021/12/23 16:31:14;;;;;;;;;;;;;;;-16.63;54.33;96432.03;6397529;27;20456;-70
2021/12/23 16:34:18;;;;;;;;;;;;;;;-16.73;54.31;96440.06;6397436;27;20328;-71
2021/12/23 16:37:20;;;;;;;;;;;;;;;-16.64;54.13;96444.56;6397037;27;19923;-71
2021/12/23 16:40:26;;;;;;;;;;;;;;;-16.79;54.85;96448.31;6397311;27;19923;-70
2021/12/23 16:43:27;;;;;;;;;;;;;;;-16.82;54.77;96443.19;6397410;27;19923;-70
2021/12/23 16:46:31;;;;;;;;;;;;;;;-16.54;52.88;96439.03;6397567;27;19930;-69
2021/12/23 16:49:32;;;;;;;;;;;;;;;-16.65;53.19;96450.41;6396740;27;19930;-70
2021/12/23 16:52:36;;;;;;;;;;;;;;;-16.68;53.39;96451.16;6396430;27;20072;-71
2021/12/23 16:58:44;;;;;;;;;;;;;;;-16.64;53.10;96437.00;6395846;27;19936;-70
2021/12/23 17:01:46;;;;;;;;;;;;;;;-16.76;53.14;96471.03;6395901;27;19923;-70
2021/12/23 17:04:47;;;;;;;;;;;;;;;-16.96;53.58;96463.66;6396445;27;19927;-71
2021/12/23 17:07:51;;;;;;;;;;;;;;;-16.86;53.58;96464.03;6397098;27;19964;-70
2021/12/23 17:10:56;;;;;;;;;;;;;;;-16.88;53.58;96470.66;6396376;27;20308;-70
2021/12/23 17:13:57;;;;;;;;;;;;;;;-16.89;52.80;96474.00;6395679;27;19927;-69